Time;durP1;ratioP1;P1;durP2;ratioP2;P2;SDS_P1;SDS_P2;PMS_P1;PMS_P2;Temp;Humidity;BMP_temperature;BMP_pressure;BME280_temperature;BME280_humidity;BME280_pressure;Samples;Min_cycle;Max_cycle;Signal;HPM_P1;HPM_P2
2023/10/19 00:01:25;;;;;;;13.32;8.77;;;8.40;99.90;;;;;;4934341;29;20055;-87
2023/10/19 00:03:55;;;;;;;15.60;9.40;;;7.90;99.90;;;;;;4918418;29;20079;-87
2023/10/19 00:06:25;;;;;;;15.25;9.45;;;7.80;99.90;;;;;;4934267;29;20533;-87
2023/10/19 00:08:52;;;;;;;15.18;9.18;;;7.90;99.90;;;;;;4934423;29;20099;-87
2023/10/19 00:11:24;;;;;;;13.77;8.52;;;7.90;99.90;;;;;;4937366;29;20083;-88
2023/10/19 00:13:50;;;;;;;13.45;8.63;;;7.80;99.90;;;;;;4924810;29;20071;-89
2023/10/19 00:16:19;;;;;;;15.15;9.70;;;7.80;99.90;;;;;;4934472;29;20389;-88
2023/10/19 00:18:48;;;;;;;14.05;9.10;;;8.00;99.90;;;;;;4929698;29;20056;-88
2023/10/19 00:21:25;;;;;;;15.00;9.65;;;7.80;99.90;;;;;;4975444;28;20141;-87
2023/10/19 00:23:57;;;;;;;15.07;8.52;;;7.80;99.90;;;;;;5064620;28;20037;-87
2023/10/19 00:26:25;;;;;;;19.20;9.88;;;7.80;99.90;;;;;;5048952;28;20120;-88
2023/10/19 00:29:14;;;;;;;15.98;8.88;;;7.80;99.90;;;;;;5051811;28;20145;-88
2023/10/19 00:31:40;;;;;;;14.00;8.98;;;7.80;99.90;;;;;;5064516;28;20446;-87
2023/10/19 00:34:07;;;;;;;15.98;10.25;;;7.80;99.90;;;;;;5054077;28;20049;-87
2023/10/19 00:36:34;;;;;;;14.88;9.05;;;7.70;99.90;;;;;;5054545;28;20094;-88
2023/10/19 00:39:13;;;;;;;16.25;10.00;;;7.80;99.90;;;;;;5045958;28;20462;-87
2023/10/19 00:41:42;;;;;;;14.77;9.35;;;7.70;99.90;;;;;;5053640;28;20572;-87
2023/10/19 00:44:12;;;;;;;18.42;9.98;;;7.80;99.90;;;;;;5053425;28;20087;-87
2023/10/19 00:46:43;;;;;;;15.45;9.48;;;8.30;99.90;;;;;;5070686;28;20040;-88
2023/10/19 00:49:14;;;;;;;17.92;10.05;;;7.70;99.90;;;;;;5058939;28;20076;-88
2023/10/19 00:54:40;;;;;;;17.13;9.80;;;7.70;99.90;;;;;;5071405;28;20045;-88
2023/10/19 00:57:10;;;;;;;17.52;9.80;;;7.70;99.90;;;;;;5046009;28;20037;-88
2023/10/19 00:59:54;;;;;;;15.90;9.85;;;7.80;99.90;;;;;;5048789;28;20092;-87
2023/10/19 01:02:21;;;;;;;16.77;10.10;;;7.70;99.90;;;;;;5037609;28;20129;-86
2023/10/19 01:04:55;;;;;;;17.67;10.85;;;7.70;99.90;;;;;;5039858;28;20534;-87
2023/10/19 01:07:29;;;;;;;17.05;10.60;;;7.70;99.90;;;;;;5050612;28;20045;-87
2023/10/19 01:10:00;;;;;;;18.65;10.45;;;7.70;99.90;;;;;;5078554;28;20045;-89
2023/10/19 01:12:33;;;;;;;17.13;10.13;;;7.70;99.90;;;;;;5051201;28;20123;-88
2023/10/19 01:15:17;;;;;;;15.13;10.43;;;7.70;99.90;;;;;;5057795;28;20068;-87
2023/10/19 01:17:46;;;;;;;19.42;11.20;;;7.70;99.90;;;;;;5052330;28;20037;-88
2023/10/19 01:28:40;;;;;;;17.38;11.02;;;7.60;99.90;;;;;;5070727;28;20099;-87
2023/10/19 01:33:58;;;;;;;17.90;9.85;;;8.00;99.90;;;;;;5067954;28;20042;-88
2023/10/19 01:36:26;;;;;;;19.40;11.25;;;7.90;99.90;;;;;;5062907;28;20045;-88
2023/10/19 01:38:55;;;;;;;16.40;10.55;;;7.70;99.90;;;;;;5044745;28;20053;-89
2023/10/19 01:41:24;;;;;;;16.08;10.90;;;8.30;99.90;;;;;;5047565;28;20037;-88
2023/10/19 01:43:55;;;;;;;17.30;11.05;;;8.20;99.90;;;;;;5060330;28;20037;-87
2023/10/19 01:46:24;;;;;;;17.77;11.00;;;7.80;99.90;;;;;;5052988;28;20096;-87
2023/10/19 01:48:55;;;;;;;17.00;10.70;;;7.70;99.90;;;;;;5046315;28;20033;-88
2023/10/19 01:51:26;;;;;;;16.98;10.73;;;7.60;99.90;;;;;;5046629;28;20038;-87
2023/10/19 01:53:55;;;;;;;19.25;11.18;;;8.20;99.90;;;;;;5051773;28;20095;-87
2023/10/19 01:56:22;;;;;;;17.55;10.63;;;7.60;99.90;;;;;;5065814;28;20045;-87
2023/10/19 01:58:51;;;;;;;18.23;11.15;;;7.80;99.90;;;;;;5062658;28;20118;-88
2023/10/19 02:04:03;;;;;;;17.63;11.50;;;7.90;99.90;;;;;;5071496;28;20120;-88
2023/10/19 02:06:40;;;;;;;21.90;11.80;;;7.60;99.90;;;;;;5047979;28;20037;-87
2023/10/19 02:09:21;;;;;;;16.50;10.80;;;7.60;99.90;;;;;;5054482;28;20385;-89
2023/10/19 02:11:52;;;;;;;18.80;10.80;;;7.60;99.90;;;;;;5053020;28;20033;-88
2023/10/19 02:14:19;;;;;;;15.23;9.50;;;7.60;99.90;;;;;;5060737;28;20034;-88
2023/10/19 02:16:51;;;;;;;19.67;10.50;;;7.60;99.90;;;;;;5053743;28;20043;-88
2023/10/19 02:19:22;;;;;;;17.80;10.82;;;7.60;99.90;;;;;;5036407;28;20491;-88
2023/10/19 02:21:52;;;;;;;18.30;10.98;;;8.30;99.90;;;;;;5073950;28;20048;-89
2023/10/19 02:24:19;;;;;;;15.15;9.82;;;7.60;99.90;;;;;;5060363;28;20044;-88
2023/10/19 02:26:51;;;;;;;18.20;11.10;;;7.70;99.90;;;;;;5048057;28;20136;-89
2023/10/19 02:29:18;;;;;;;17.08;10.27;;;7.90;99.90;;;;;;5044459;28;20045;-89
2023/10/19 02:31:45;;;;;;;14.73;10.50;;;7.90;99.90;;;;;;5034489;28;20038;-89
2023/10/19 02:34:14;;;;;;;15.70;10.70;;;7.60;99.90;;;;;;5049347;28;20038;-89
2023/10/19 02:36:43;;;;;;;15.85;10.25;;;7.90;99.90;;;;;;5054069;28;20373;-88
2023/10/19 02:39:11;;;;;;;18.50;10.40;;;7.60;99.90;;;;;;5044887;28;20038;-88
2023/10/19 02:41:41;;;;;;;15.38;10.15;;;7.60;99.90;;;;;;5045580;28;20046;-88
2023/10/19 02:44:09;;;;;;;16.08;10.45;;;7.30;99.90;;;;;;5069973;28;20103;-89
2023/10/19 02:46:41;;;;;;;19.65;10.25;;;7.60;99.90;;;;;;5053213;28;20033;-89
2023/10/19 02:49:13;;;;;;;18.83;10.82;;;7.80;99.90;;;;;;5073243;28;20103;-89
2023/10/19 02:51:44;;;;;;;19.15;10.75;;;8.30;99.90;;;;;;5080336;28;20384;-90
2023/10/19 02:54:20;;;;;;;15.40;9.55;;;7.60;99.90;;;;;;5064048;28;20042;-92
2023/10/19 02:56:49;;;;;;;16.65;9.90;;;8.30;99.90;;;;;;5053912;28;20076;-90
2023/10/19 02:59:17;;;;;;;21.58;10.55;;;7.60;99.90;;;;;;5045385;28;20127;-92
2023/10/19 03:01:44;;;;;;;14.35;9.43;;;7.60;99.90;;;;;;5052614;28;20041;-91
2023/10/19 03:04:12;;;;;;;14.07;9.20;;;7.70;99.90;;;;;;5053938;28;20513;-91
2023/10/19 03:06:40;;;;;;;16.55;9.90;;;7.50;99.90;;;;;;5053858;28;20507;-91
2023/10/19 03:09:53;;;;;;;14.95;9.80;;;8.00;99.90;;;;;;5048273;28;20491;-90
2023/10/19 03:12:04;;;;;;;14.15;8.98;;;7.60;99.90;;;;;;5038271;28;20412;-91
2023/10/19 03:14:32;;;;;;;14.90;9.57;;;7.60;99.90;;;;;;5045159;28;20041;-91
2023/10/19 03:17:01;;;;;;;14.77;10.20;;;7.60;99.90;;;;;;5043800;28;20117;-90
2023/10/19 03:19:28;;;;;;;14.90;8.90;;;7.60;99.90;;;;;;5046246;28;20542;-90
2023/10/19 03:22:00;;;;;;;13.18;9.05;;;8.20;99.90;;;;;;5060640;28;20041;-91
2023/10/19 03:24:45;;;;;;;14.40;9.65;;;7.60;99.90;;;;;;5044168;28;20041;-91
2023/10/19 03:27:18;;;;;;;12.87;8.90;;;7.60;99.90;;;;;;5042968;28;20086;-90
2023/10/19 03:29:54;;;;;;;14.15;9.15;;;7.60;99.90;;;;;;5053394;28;20757;-91
2023/10/19 03:32:28;;;;;;;13.40;8.65;;;7.60;99.90;;;;;;5026477;28;20052;-91
2023/10/19 03:34:55;;;;;;;13.80;8.75;;;7.60;99.90;;;;;;5030763;28;20045;-91
2023/10/19 03:37:24;;;;;;;13.52;8.75;;;8.00;99.90;;;;;;5034962;28;20040;-90
2023/10/19 03:39:52;;;;;;;13.80;8.25;;;7.70;99.90;;;;;;5048101;28;20037;-90
2023/10/19 03:42:20;;;;;;;12.82;8.43;;;7.80;99.90;;;;;;5035434;28;20041;-89
2023/10/19 03:47:18;;;;;;;11.00;7.22;;;7.70;99.90;;;;;;5068896;28;20095;-91
2023/10/19 03:49:46;;;;;;;12.02;7.45;;;7.60;99.90;;;;;;5043065;28;20092;-92
2023/10/19 03:54:43;;;;;;;10.90;7.30;;;7.60;99.90;;;;;;5068868;28;20049;-90
2023/10/19 03:57:19;;;;;;;12.75;7.70;;;8.00;99.90;;;;;;5048687;28;20124;-90
2023/10/19 03:59:50;;;;;;;15.48;7.40;;;7.70;99.90;;;;;;5046449;28;20052;-90
2023/10/19 04:02:20;;;;;;;27.42;7.60;;;7.70;99.90;;;;;;5042764;28;20033;-90
2023/10/19 04:04:52;;;;;;;11.85;8.02;;;7.70;99.90;;;;;;5063179;28;20037;-90
2023/10/19 04:07:21;;;;;;;12.30;7.95;;;7.60;99.90;;;;;;5062999;28;20048;-89
2023/10/19 04:12:37;;;;;;;10.68;7.22;;;7.70;99.90;;;;;;5053093;28;20129;-90
2023/10/19 04:15:27;;;;;;;12.05;7.90;;;7.70;99.90;;;;;;5036866;28;20120;-89
2023/10/19 04:17:54;;;;;;;12.35;7.65;;;7.70;99.90;;;;;;5050279;28;20136;-89
2023/10/19 04:22:50;;;;;;;10.63;6.88;;;7.90;99.90;;;;;;5052767;28;20458;-89
2023/10/19 04:25:18;;;;;;;10.90;7.10;;;7.70;99.90;;;;;;5038953;28;20052;-89
2023/10/19 04:27:46;;;;;;;13.40;6.85;;;7.70;99.90;;;;;;5050186;28;20171;-90
2023/10/19 04:30:26;;;;;;;9.63;6.43;;;7.70;99.90;;;;;;5041474;28;20392;-89
2023/10/19 04:32:55;;;;;;;9.32;6.18;;;7.70;99.90;;;;;;5041710;28;20037;-90
2023/10/19 04:35:23;;;;;;;9.93;6.40;;;7.70;99.90;;;;;;5053278;28;20042;-89
2023/10/19 04:37:51;;;;;;;9.13;6.20;;;7.40;99.90;;;;;;5043699;28;20048;-89
2023/10/19 04:40:19;;;;;;;10.45;6.43;;;8.30;99.90;;;;;;5037892;28;20033;-90
2023/10/19 04:42:48;;;;;;;9.75;5.65;;;7.70;99.90;;;;;;5033554;28;20116;-90
2023/10/19 04:45:14;;;;;;;8.63;5.85;;;7.80;99.90;;;;;;5029474;28;20048;-89
2023/10/19 04:47:41;;;;;;;9.75;5.80;;;7.70;99.90;;;;;;5045014;28;20120;-88
2023/10/19 04:50:11;;;;;;;9.55;5.82;;;7.70;99.90;;;;;;5038872;28;20048;-90
2023/10/19 04:52:38;;;;;;;7.32;4.90;;;7.70;99.90;;;;;;5036444;28;20045;-90
2023/10/19 04:55:05;;;;;;;7.82;5.07;;;7.70;99.90;;;;;;5037941;28;20049;-89
2023/10/19 04:57:32;;;;;;;7.63;4.88;;;7.80;99.90;;;;;;5035350;28;20046;-90
2023/10/19 04:59:59;;;;;;;7.13;4.85;;;8.40;99.90;;;;;;5046964;28;20404;-91
2023/10/19 05:02:25;;;;;;;7.78;4.90;;;8.50;99.90;;;;;;5038941;28;20128;-91
2023/10/19 05:04:52;;;;;;;7.88;4.82;;;7.80;99.90;;;;;;5050692;28;20041;-89
2023/10/19 05:07:23;;;;;;;6.85;4.60;;;7.80;99.90;;;;;;5039646;28;20057;-90
2023/10/19 05:09:55;;;;;;;6.07;4.15;;;7.70;99.90;;;;;;5043585;28;20125;-90
2023/10/19 05:12:22;;;;;;;6.32;4.18;;;8.40;99.90;;;;;;5038360;28;20037;-91
2023/10/19 05:14:49;;;;;;;6.07;4.18;;;8.10;99.90;;;;;;5041301;28;20172;-91
2023/10/19 05:17:15;;;;;;;7.20;4.57;;;7.80;99.90;;;;;;5028608;28;20053;-89
2023/10/19 05:19:42;;;;;;;5.75;3.63;;;7.80;99.90;;;;;;5039401;28;20548;-91
2023/10/19 05:22:10;;;;;;;6.10;4.07;;;8.10;99.90;;;;;;5049987;28;20045;-91
2023/10/19 05:24:37;;;;;;;6.00;3.58;;;7.70;99.90;;;;;;5039598;28;20415;-90
2023/10/19 05:27:05;;;;;;;5.93;4.05;;;7.70;99.90;;;;;;5041339;28;20037;-91
2023/10/19 05:29:35;;;;;;;6.88;3.75;;;7.80;99.90;;;;;;5041676;28;20026;-90
2023/10/19 05:32:03;;;;;;;5.90;3.53;;;7.70;99.90;;;;;;5038640;28;20848;-90
2023/10/19 05:34:32;;;;;;;6.45;3.67;;;7.80;99.90;;;;;;5039136;28;20033;-90
2023/10/19 05:37:01;;;;;;;5.10;3.20;;;7.80;99.90;;;;;;5034123;28;20638;-90
2023/10/19 05:39:30;;;;;;;5.32;3.28;;;7.90;99.90;;;;;;5054324;28;20442;-90
2023/10/19 05:42:00;;;;;;;5.35;3.28;;;7.70;99.90;;;;;;5033314;28;20049;-91
2023/10/19 05:44:31;;;;;;;5.00;3.10;;;7.80;99.90;;;;;;5044484;28;20113;-89
2023/10/19 05:46:58;;;;;;;4.90;3.28;;;7.80;99.90;;;;;;5047387;28;20443;-90
2023/10/19 05:49:25;;;;;;;5.85;3.20;;;7.70;99.90;;;;;;5029266;28;20065;-90
2023/10/19 05:51:52;;;;;;;6.25;3.35;;;7.70;99.90;;;;;;5036078;28;20139;-90
2023/10/19 05:54:18;;;;;;;6.55;3.20;;;7.70;99.90;;;;;;5026703;28;20034;-91
2023/10/19 05:56:45;;;;;;;6.05;2.92;;;8.10;99.90;;;;;;5040652;28;20104;-90
2023/10/19 05:59:13;;;;;;;5.90;3.15;;;7.70;99.90;;;;;;5032220;28;20053;-90
2023/10/19 06:01:41;;;;;;;5.32;3.40;;;7.80;99.90;;;;;;5040632;28;20334;-89
2023/10/19 06:04:08;;;;;;;4.85;3.15;;;7.90;99.90;;;;;;5047011;28;20854;-90
2023/10/19 06:06:36;;;;;;;5.15;3.03;;;7.80;99.90;;;;;;5038861;28;20113;-90
2023/10/19 06:09:04;;;;;;;4.97;3.30;;;7.80;99.90;;;;;;5040976;28;20073;-90
2023/10/19 06:11:32;;;;;;;5.65;3.53;;;7.80;99.90;;;;;;5035992;28;20038;-90
2023/10/19 06:14:02;;;;;;;6.43;3.20;;;8.40;99.90;;;;;;5045635;28;20059;-91
2023/10/19 06:16:31;;;;;;;5.10;3.03;;;7.70;99.90;;;;;;5039464;28;20091;-90
2023/10/19 06:18:58;;;;;;;4.97;3.30;;;8.20;99.90;;;;;;5047180;28;20061;-87
2023/10/19 06:21:25;;;;;;;5.75;3.50;;;7.70;99.90;;;;;;5024740;28;20038;-91
2023/10/19 06:23:53;;;;;;;5.43;3.15;;;7.70;99.90;;;;;;5031862;28;20534;-91
2023/10/19 06:26:20;;;;;;;5.18;3.20;;;7.70;99.90;;;;;;5036408;28;20038;-92
2023/10/19 06:28:49;;;;;;;4.93;3.17;;;7.70;99.90;;;;;;5051283;28;20037;-90
2023/10/19 06:31:17;;;;;;;4.97;3.40;;;7.70;99.90;;;;;;5033226;28;20048;-94
2023/10/19 06:33:43;;;;;;;4.95;2.95;;;7.70;99.90;;;;;;5039013;28;20045;-93
2023/10/19 06:36:10;;;;;;;4.63;2.83;;;7.70;99.90;;;;;;5065914;28;20055;-92
2023/10/19 06:38:38;;;;;;;4.50;2.85;;;7.70;99.90;;;;;;5053614;28;20050;-93
2023/10/19 06:41:12;;;;;;;4.38;2.70;;;7.70;99.90;;;;;;5052795;28;20079;-92
2023/10/19 06:43:40;;;;;;;6.00;3.10;;;8.30;99.90;;;;;;5046043;28;20063;-94
2023/10/19 06:46:07;;;;;;;4.78;3.00;;;7.50;99.90;;;;;;5050473;28;20518;-92
2023/10/19 06:48:35;;;;;;;7.15;3.10;;;7.70;99.90;;;;;;5039634;28;20077;-92
2023/10/19 06:51:02;;;;;;;5.00;2.67;;;8.00;99.90;;;;;;5048933;28;20042;-93
2023/10/19 06:53:29;;;;;;;4.90;2.90;;;7.70;99.90;;;;;;5047698;28;20495;-94
2023/10/19 06:55:59;;;;;;;4.25;2.70;;;8.20;99.90;;;;;;5041334;28;20038;-93
2023/10/19 06:58:26;;;;;;;4.93;3.10;;;7.70;99.90;;;;;;5039951;28;20060;-92
2023/10/19 07:01:12;;;;;;;5.13;3.03;;;7.90;99.90;;;;;;5040930;28;20041;-92
2023/10/19 07:03:39;;;;;;;4.38;2.70;;;7.70;99.90;;;;;;5051772;28;20553;-94
2023/10/19 07:06:07;;;;;;;4.97;2.63;;;8.20;99.90;;;;;;5046816;28;20041;-94
2023/10/19 07:08:34;;;;;;;4.93;3.10;;;7.70;99.90;;;;;;5043075;28;20427;-94
2023/10/19 07:11:01;;;;;;;4.13;2.75;;;8.00;99.90;;;;;;5051768;28;20033;-93
2023/10/19 07:13:32;;;;;;;4.72;3.00;;;7.80;99.90;;;;;;5050543;28;20045;-93
2023/10/19 07:15:59;;;;;;;5.35;3.10;;;8.00;99.90;;;;;;5050775;28;20037;-93
2023/10/19 07:18:26;;;;;;;5.68;2.83;;;7.80;99.90;;;;;;5054670;28;20037;-93
2023/10/19 07:20:53;;;;;;;5.03;2.80;;;7.80;99.90;;;;;;5053149;28;20041;-93
2023/10/19 07:23:21;;;;;;;6.35;2.70;;;7.80;99.90;;;;;;5047114;28;20037;-93
2023/10/19 07:25:52;;;;;;;4.72;2.83;;;8.20;99.90;;;;;;5050213;28;20072;-91
2023/10/19 07:28:19;;;;;;;4.38;2.72;;;7.80;99.90;;;;;;5059393;28;20033;-92
2023/10/19 07:30:46;;;;;;;4.32;2.70;;;8.50;99.90;;;;;;5062798;28;20544;-92
2023/10/19 07:33:17;;;;;;;4.53;2.90;;;7.80;99.90;;;;;;5059058;28;20099;-95
2023/10/19 07:35:52;;;;;;;5.57;2.80;;;7.80;99.90;;;;;;5052927;28;20121;-93
2023/10/19 07:38:21;;;;;;;6.65;2.80;;;7.80;99.90;;;;;;5037079;28;20041;-94
2023/10/19 07:40:49;;;;;;;4.00;2.40;;;7.80;99.90;;;;;;5055992;28;20097;-92
2023/10/19 07:43:15;;;;;;;4.15;2.75;;;8.10;99.90;;;;;;5041888;28;20033;-90
2023/10/19 07:45:42;;;;;;;4.25;2.83;;;7.80;99.90;;;;;;5051245;28;20033;-90
2023/10/19 07:48:12;;;;;;;5.78;2.78;;;7.90;99.90;;;;;;5046104;28;20044;-91
2023/10/19 07:50:42;;;;;;;4.60;2.88;;;7.90;99.90;;;;;;5048290;28;20042;-92
2023/10/19 07:53:09;;;;;;;4.85;2.95;;;8.50;99.90;;;;;;5067477;28;20682;-89
2023/10/19 07:55:38;;;;;;;4.10;2.78;;;7.90;99.90;;;;;;5046779;28;20033;-90
2023/10/19 07:58:08;;;;;;;5.63;2.72;;;8.30;99.90;;;;;;5061733;28;20111;-89
2023/10/19 08:00:35;;;;;;;3.90;2.65;;;8.20;99.90;;;;;;5056283;28;20049;-92
2023/10/19 08:03:04;;;;;;;4.28;2.70;;;7.90;99.90;;;;;;5049506;28;20487;-92
2023/10/19 08:05:31;;;;;;;3.80;2.60;;;7.90;99.90;;;;;;5038683;28;20072;-92
2023/10/19 08:08:00;;;;;;;4.30;2.88;;;7.90;99.90;;;;;;5046681;28;20047;-92
2023/10/19 08:10:26;;;;;;;4.18;2.80;;;8.60;99.90;;;;;;5060234;28;20041;-92
2023/10/19 08:12:55;;;;;;;4.70;2.67;;;7.90;99.90;;;;;;5062586;28;20514;-92
2023/10/19 08:15:23;;;;;;;4.97;2.67;;;8.40;99.90;;;;;;5029620;28;20070;-94
2023/10/19 08:17:50;;;;;;;3.97;2.63;;;7.90;99.90;;;;;;5053050;28;20558;-91
2023/10/19 08:20:22;;;;;;;4.85;2.90;;;8.20;99.90;;;;;;5060642;28;20046;-91
2023/10/19 08:22:51;;;;;;;3.75;2.50;;;7.90;99.90;;;;;;5060594;28;20048;-91
2023/10/19 08:25:18;;;;;;;5.78;2.75;;;8.50;99.90;;;;;;5072145;28;20037;-91
2023/10/19 08:27:45;;;;;;;5.32;2.90;;;8.20;99.90;;;;;;5060887;28;20052;-90
2023/10/19 08:30:13;;;;;;;3.88;2.33;;;7.90;99.90;;;;;;5040207;28;20131;-88
2023/10/19 08:32:41;;;;;;;4.85;2.58;;;7.90;99.90;;;;;;5037366;28;20045;-89
2023/10/19 08:35:11;;;;;;;5.88;2.90;;;8.50;99.90;;;;;;5041099;28;20052;-89
2023/10/19 08:37:39;;;;;;;5.03;3.00;;;7.90;99.90;;;;;;5038309;28;20124;-90
2023/10/19 08:40:13;;;;;;;4.95;2.90;;;8.40;99.90;;;;;;5057366;28;20052;-90
2023/10/19 08:42:48;;;;;;;4.13;2.70;;;7.90;99.90;;;;;;5037130;28;20399;-90
2023/10/19 08:45:16;;;;;;;4.47;2.50;;;8.00;99.90;;;;;;5051464;28;20120;-90
2023/10/19 08:47:57;;;;;;;6.07;2.92;;;7.90;99.90;;;;;;5046827;28;20112;-90
2023/10/19 08:50:28;;;;;;;5.10;3.00;;;7.90;99.90;;;;;;5050370;28;20526;-90
2023/10/19 08:52:57;;;;;;;4.90;2.92;;;8.50;99.90;;;;;;5048071;28;20075;-90
2023/10/19 08:55:24;;;;;;;8.02;3.10;;;8.00;99.90;;;;;;5036230;28;20038;-90
2023/10/19 08:57:51;;;;;;;4.70;2.85;;;8.00;99.90;;;;;;5048309;28;20041;-88
2023/10/19 09:00:19;;;;;;;4.40;2.78;;;8.00;99.90;;;;;;5036287;28;20057;-92
2023/10/19 09:02:46;;;;;;;5.55;2.70;;;8.00;99.90;;;;;;5035566;28;20109;-90
2023/10/19 09:05:30;;;;;;;4.45;2.60;;;8.20;99.90;;;;;;5062468;28;20053;-90
2023/10/19 09:07:56;;;;;;;6.22;2.63;;;8.10;99.90;;;;;;5057462;28;20040;-91
2023/10/19 09:10:28;;;;;;;4.80;3.00;;;8.10;99.90;;;;;;5049476;28;20037;-91
2023/10/19 09:13:12;;;;;;;4.25;2.53;;;8.10;99.90;;;;;;5045178;28;20068;-89
2023/10/19 09:15:41;;;;;;;4.28;2.80;;;8.30;99.90;;;;;;5057416;28;20038;-91
2023/10/19 09:18:15;;;;;;;3.75;2.58;;;8.90;99.90;;;;;;5038236;28;20055;-91
2023/10/19 09:20:52;;;;;;;4.25;2.80;;;8.10;99.90;;;;;;5043514;28;20037;-92
2023/10/19 09:23:30;;;;;;;4.25;2.78;;;8.10;99.90;;;;;;5044759;28;20107;-90
2023/10/19 09:26:02;;;;;;;4.65;2.75;;;8.10;99.90;;;;;;5037712;28;20062;-87
2023/10/19 09:28:33;;;;;;;4.25;2.60;;;8.20;99.90;;;;;;5046668;28;20096;-90
2023/10/19 09:31:03;;;;;;;4.63;3.13;;;8.10;99.90;;;;;;5052437;28;20038;-88
2023/10/19 09:33:34;;;;;;;4.40;2.83;;;8.20;99.90;;;;;;5040461;28;20197;-91
2023/10/19 09:36:05;;;;;;;5.68;2.92;;;8.30;99.90;;;;;;5057757;28;20037;-91
2023/10/19 09:38:32;;;;;;;5.07;3.45;;;8.20;99.90;;;;;;5045287;28;20041;-83
2023/10/19 09:41:00;;;;;;;3.75;2.67;;;8.30;99.90;;;;;;5067715;28;20063;-83
2023/10/19 09:43:49;;;;;;;4.80;3.15;;;8.30;99.90;;;;;;5053392;28;20049;-84
2023/10/19 09:46:43;;;;;;;4.45;2.92;;;8.30;99.90;;;;;;5049326;28;20053;-87
2023/10/19 09:49:13;;;;;;;4.53;3.13;;;8.30;99.90;;;;;;5039257;28;20041;-87
2023/10/19 09:51:42;;;;;;;5.05;3.63;;;8.30;99.90;;;;;;5067472;28;20415;-88
2023/10/19 09:54:34;;;;;;;5.30;3.80;;;8.30;99.90;;;;;;5052504;28;20120;-88
2023/10/19 09:57:10;;;;;;;5.70;4.00;;;8.40;99.90;;;;;;5045468;28;20044;-88
2023/10/19 09:59:40;;;;;;;5.50;4.05;;;8.40;99.90;;;;;;5037482;28;20168;-88
2023/10/19 10:02:15;;;;;;;5.80;4.00;;;8.90;99.90;;;;;;5048740;28;20049;-88
2023/10/19 10:04:45;;;;;;;6.18;4.00;;;8.50;99.90;;;;;;5052148;28;20037;-88
2023/10/19 10:07:12;;;;;;;5.95;4.63;;;7.80;99.90;;;;;;5065466;28;20076;-86
2023/10/19 10:09:43;;;;;;;6.38;4.68;;;9.30;99.90;;;;;;5048232;28;20057;-89
2023/10/19 10:12:24;;;;;;;5.80;4.32;;;8.50;99.90;;;;;;5044624;28;20041;-89
2023/10/19 10:15:05;;;;;;;6.47;4.32;;;8.50;99.90;;;;;;5049141;28;20092;-89
2023/10/19 10:17:37;;;;;;;6.63;4.63;;;8.50;99.90;;;;;;5062602;28;20120;-88
2023/10/19 10:20:13;;;;;;;8.02;4.82;;;8.60;99.90;;;;;;5066585;28;20048;-88
2023/10/19 10:22:44;;;;;;;6.25;4.53;;;8.70;99.90;;;;;;5048870;28;20046;-89
2023/10/19 10:25:27;;;;;;;7.82;4.68;;;8.60;99.90;;;;;;5062005;28;20049;-88
2023/10/19 10:27:55;;;;;;;8.50;5.13;;;9.00;99.90;;;;;;5052245;28;20042;-88
2023/10/19 10:30:22;;;;;;;7.10;4.82;;;9.20;99.90;;;;;;5074417;28;20091;-88
2023/10/19 10:32:54;;;;;;;8.93;4.75;;;8.60;99.90;;;;;;5054212;28;20041;-89
2023/10/19 10:35:36;;;;;;;6.72;4.32;;;8.70;99.90;;;;;;5070566;28;20124;-88
2023/10/19 10:38:05;;;;;;;6.78;4.85;;;8.70;99.90;;;;;;5043577;28;20045;-88
2023/10/19 10:40:45;;;;;;;7.32;4.70;;;8.70;99.90;;;;;;5042795;28;20484;-88
2023/10/19 10:43:12;;;;;;;5.65;3.78;;;8.70;99.90;;;;;;5050165;28;20053;-88
2023/10/19 10:45:39;;;;;;;6.28;3.80;;;9.00;99.90;;;;;;5043854;28;20050;-88
2023/10/19 10:48:14;;;;;;;5.95;3.70;;;8.70;99.90;;;;;;5048125;28;20042;-88
2023/10/19 10:50:45;;;;;;;6.97;3.50;;;8.70;99.90;;;;;;5042023;28;20112;-89
2023/10/19 10:53:15;;;;;;;5.70;3.55;;;8.70;99.90;;;;;;5041782;28;20037;-88
2023/10/19 10:55:41;;;;;;;4.97;3.30;;;8.70;99.90;;;;;;5048949;28;20048;-88
2023/10/19 10:58:08;;;;;;;4.88;3.40;;;8.80;99.90;;;;;;5063135;28;20041;-88
2023/10/19 11:00:42;;;;;;;4.55;3.13;;;8.80;99.90;;;;;;5041384;28;20587;-89
2023/10/19 11:03:09;;;;;;;5.15;3.35;;;8.80;99.90;;;;;;5051599;28;20040;-88
2023/10/19 11:05:37;;;;;;;5.43;3.20;;;8.80;99.90;;;;;;5045911;28;20045;-87
2023/10/19 11:08:16;;;;;;;5.07;3.28;;;8.90;99.90;;;;;;5044375;28;20085;-87
2023/10/19 11:10:46;;;;;;;4.70;3.10;;;8.90;99.90;;;;;;5062059;28;20068;-87
2023/10/19 11:13:14;;;;;;;5.82;3.60;;;8.80;99.90;;;;;;5039640;28;20041;-87
2023/10/19 11:15:53;;;;;;;5.40;3.30;;;8.90;99.90;;;;;;5050779;28;20045;-88
2023/10/19 11:18:32;;;;;;;4.72;3.47;;;9.00;99.90;;;;;;5062346;28;20037;-88
2023/10/19 11:21:04;;;;;;;5.55;3.35;;;8.90;99.90;;;;;;5050849;28;20050;-87
2023/10/19 11:23:42;;;;;;;5.53;3.67;;;8.90;99.90;;;;;;5038420;28;20116;-88
2023/10/19 11:26:10;;;;;;;5.95;4.40;;;8.90;99.90;;;;;;5059083;28;20037;-89
2023/10/19 11:28:50;;;;;;;7.53;4.90;;;9.20;99.90;;;;;;5042086;28;20451;-89
2023/10/19 11:31:23;;;;;;;8.30;5.88;;;9.50;99.90;;;;;;5072768;28;20090;-88
2023/10/19 11:33:51;;;;;;;7.55;5.63;;;8.80;99.90;;;;;;5043608;28;20033;-88
2023/10/19 11:36:20;;;;;;;8.95;7.07;;;8.90;99.90;;;;;;5052238;28;20080;-87
2023/10/19 11:38:48;;;;;;;9.20;6.93;;;8.90;99.90;;;;;;5052894;28;20037;-89
2023/10/19 11:41:16;;;;;;;9.30;7.63;;;8.90;99.90;;;;;;5046620;28;20052;-88
2023/10/19 11:43:46;;;;;;;10.68;8.55;;;8.90;99.90;;;;;;5059625;28;20446;-88
2023/10/19 11:46:14;;;;;;;10.38;8.38;;;8.90;99.90;;;;;;5033745;28;20570;-88
2023/10/19 11:48:42;;;;;;;11.20;7.95;;;8.80;99.90;;;;;;5063492;28;20140;-86
2023/10/19 11:51:10;;;;;;;11.35;7.93;;;8.80;99.90;;;;;;5044252;28;20033;-88
2023/10/19 11:53:38;;;;;;;9.63;7.05;;;8.80;99.90;;;;;;5068019;28;20128;-87
2023/10/19 11:56:11;;;;;;;10.43;7.32;;;8.70;99.90;;;;;;5054382;28;20045;-88
2023/10/19 11:58:40;;;;;;;8.20;6.35;;;8.70;99.90;;;;;;5054304;28;20192;-88
2023/10/19 12:01:11;;;;;;;8.45;5.78;;;9.50;99.90;;;;;;5047486;28;20085;-88
2023/10/19 12:03:45;;;;;;;11.10;6.35;;;9.20;99.90;;;;;;5043346;28;20033;-88
2023/10/19 12:06:18;;;;;;;9.05;6.20;;;8.70;99.90;;;;;;5031304;28;20034;-87
2023/10/19 12:08:46;;;;;;;9.65;6.10;;;8.70;99.90;;;;;;5054763;28;20113;-89
2023/10/19 12:11:19;;;;;;;8.95;6.38;;;8.70;99.90;;;;;;5034225;28;20415;-89
2023/10/19 12:13:46;;;;;;;8.82;6.40;;;8.60;99.90;;;;;;5043364;28;20053;-87
2023/10/19 12:16:15;;;;;;;8.05;5.70;;;8.70;99.90;;;;;;5036223;28;20050;-88
2023/10/19 12:18:43;;;;;;;11.68;5.13;;;8.70;99.90;;;;;;5050326;28;20038;-87
2023/10/19 12:21:12;;;;;;;7.45;5.10;;;9.60;99.90;;;;;;5038574;28;20400;-88
2023/10/19 12:23:40;;;;;;;6.15;4.47;;;9.30;99.90;;;;;;5031165;28;20038;-87
2023/10/19 12:26:14;;;;;;;7.72;4.32;;;8.90;99.90;;;;;;5041203;28;20423;-87
2023/10/19 12:28:42;;;;;;;6.55;4.00;;;9.40;99.90;;;;;;5026557;28;20034;-87
2023/10/19 12:31:09;;;;;;;7.32;4.22;;;9.00;99.90;;;;;;5053910;28;20117;-88
2023/10/19 12:33:36;;;;;;;6.28;3.72;;;9.40;99.90;;;;;;5035270;28;20049;-89
2023/10/19 12:36:22;;;;;;;5.55;3.78;;;8.90;99.90;;;;;;5036630;28;20049;-89
2023/10/19 12:38:49;;;;;;;7.68;3.97;;;8.80;99.90;;;;;;5049983;28;20048;-88
2023/10/19 12:41:17;;;;;;;8.98;4.25;;;9.40;99.90;;;;;;5036353;28;20119;-87
2023/10/19 12:43:45;;;;;;;9.18;4.57;;;8.80;99.90;;;;;;5045969;28;20080;-88
2023/10/19 12:46:15;;;;;;;7.43;4.07;;;8.80;99.90;;;;;;5043013;28;20447;-88
2023/10/19 12:48:43;;;;;;;8.30;4.72;;;8.80;99.90;;;;;;5037609;28;20088;-87
2023/10/19 12:51:11;;;;;;;7.35;4.28;;;8.80;99.90;;;;;;5043505;28;20044;-87
2023/10/19 12:53:41;;;;;;;7.50;4.35;;;8.80;99.90;;;;;;5039983;28;20050;-88
2023/10/19 12:56:10;;;;;;;7.88;4.18;;;9.50;99.90;;;;;;5031237;28;20041;-88
2023/10/19 12:58:37;;;;;;;7.38;4.60;;;8.70;99.90;;;;;;5044335;28;20049;-87
2023/10/19 13:01:11;;;;;;;9.93;4.38;;;8.70;99.90;;;;;;5057974;28;20520;-88
2023/10/19 13:03:40;;;;;;;7.47;4.63;;;9.10;99.90;;;;;;5062101;28;20499;-89
2023/10/19 13:06:07;;;;;;;7.93;4.20;;;8.90;99.90;;;;;;5042816;28;20030;-88
2023/10/19 13:08:34;;;;;;;9.07;4.60;;;8.70;99.90;;;;;;5026018;28;20427;-89
2023/10/19 13:11:01;;;;;;;9.38;4.85;;;8.70;99.90;;;;;;5036407;28;20079;-89
2023/10/19 13:13:27;;;;;;;9.80;4.50;;;8.80;99.90;;;;;;5034210;28;20045;-88
2023/10/19 13:15:54;;;;;;;10.68;4.50;;;8.70;99.90;;;;;;5047037;28;20476;-86
2023/10/19 13:18:21;;;;;;;8.05;4.50;;;8.70;99.90;;;;;;5032687;28;20044;-86
2023/10/19 13:20:48;;;;;;;7.75;4.75;;;8.70;99.90;;;;;;5046927;28;20068;-89
2023/10/19 13:23:21;;;;;;;7.13;4.35;;;8.70;99.90;;;;;;5023014;28;20464;-86
2023/10/19 13:26:08;;;;;;;9.95;5.05;;;8.70;99.90;;;;;;5050897;28;20050;-84
2023/10/19 13:28:38;;;;;;;7.40;4.20;;;9.00;99.90;;;;;;5031145;28;20042;-87
2023/10/19 13:31:09;;;;;;;8.70;4.32;;;8.70;99.90;;;;;;5037195;28;20053;-88
2023/10/19 13:33:37;;;;;;;8.60;4.43;;;8.80;99.90;;;;;;5045457;28;20047;-88
2023/10/19 13:36:05;;;;;;;7.43;4.47;;;8.70;99.90;;;;;;5036468;28;20073;-88